createdAt,value
2018-08-10T00:00:38.041Z,14.70
2018-08-10T00:03:08.440Z,14.60
2018-08-10T00:05:36.939Z,14.60
2018-08-10T00:08:05.357Z,14.50
2018-08-10T00:10:33.686Z,14.50
2018-08-10T00:13:01.989Z,14.40
2018-08-10T00:15:30.487Z,14.30
2018-08-10T00:17:58.886Z,14.30
2018-08-10T00:20:27.228Z,14.20
2018-08-10T00:22:55.559Z,14.10
2018-08-10T00:25:23.920Z,14.10
2018-08-10T00:27:52.232Z,14.00
2018-08-10T00:30:20.603Z,14.00
2018-08-10T00:32:49.891Z,13.90
2018-08-10T00:35:18.243Z,13.90
2018-08-10T00:37:47.664Z,13.90
2018-08-10T00:40:19.543Z,13.80
2018-08-10T00:42:47.917Z,13.70
2018-08-10T00:45:17.033Z,13.70
2018-08-10T00:47:45.802Z,13.70
2018-08-10T00:50:15.101Z,13.70
2018-08-10T00:52:44.345Z,13.60
2018-08-10T00:55:14.169Z,13.60
2018-08-10T00:57:42.906Z,13.60
2018-08-10T01:00:13.104Z,13.60
2018-08-10T01:02:41.682Z,13.60
2018-08-10T01:05:10.683Z,13.50
2018-08-10T01:07:39.014Z,13.50
2018-08-10T01:10:10.613Z,13.50
2018-08-10T01:12:39.404Z,13.50
2018-08-10T01:15:09.437Z,13.40
2018-08-10T01:17:37.961Z,13.40
2018-08-10T01:20:12.563Z,13.40
2018-08-10T01:22:47.114Z,13.40
2018-08-10T01:25:15.469Z,13.40
2018-08-10T01:27:49.138Z,13.30
2018-08-10T01:30:17.441Z,13.30
2018-08-10T01:32:45.789Z,13.30
2018-08-10T01:35:14.105Z,13.30
2018-08-10T01:37:42.430Z,13.30
2018-08-10T01:40:10.740Z,13.30
2018-08-10T01:42:39.058Z,13.20
2018-08-10T01:45:08.520Z,13.20
2018-08-10T01:47:36.795Z,13.20
2018-08-10T01:50:05.433Z,13.20
2018-08-10T01:52:33.784Z,13.20
2018-08-10T01:55:02.158Z,13.10
2018-08-10T01:57:30.562Z,13.10
2018-08-10T01:59:58.808Z,13.00
2018-08-10T02:02:27.115Z,13.00
2018-08-10T02:04:55.418Z,13.00
2018-08-10T02:07:23.740Z,13.00
2018-08-10T02:09:52.094Z,12.90
2018-08-10T02:12:20.436Z,12.90
2018-08-10T02:14:48.781Z,12.90
2018-08-10T02:17:17.122Z,12.80
2018-08-10T02:19:45.453Z,12.90
2018-08-10T02:22:13.987Z,12.90
2018-08-10T02:24:42.327Z,12.80
2018-08-10T02:27:10.740Z,12.70
2018-08-10T02:29:39.083Z,12.80
2018-08-10T02:32:07.433Z,12.70
2018-08-10T02:34:35.700Z,12.70
2018-08-10T02:37:03.991Z,12.60
2018-08-10T02:39:32.361Z,12.60
2018-08-10T02:42:00.703Z,12.60
2018-08-10T02:44:28.997Z,12.50
2018-08-10T02:46:57.299Z,12.50
2018-08-10T02:49:25.630Z,12.50
2018-08-10T02:51:53.968Z,12.40
2018-08-10T02:54:22.310Z,12.40
2018-08-10T02:56:50.610Z,12.40
2018-08-10T02:59:18.952Z,12.40
2018-08-10T03:01:47.312Z,12.40
2018-08-10T03:04:15.676Z,12.40
2018-08-10T03:06:44.017Z,12.40
2018-08-10T03:09:12.512Z,12.40
2018-08-10T03:11:40.889Z,12.40
2018-08-10T03:14:47.602Z,12.40
2018-08-10T03:17:15.950Z,12.30
2018-08-10T03:19:44.265Z,12.30
2018-08-10T03:22:12.685Z,12.30
2018-08-10T03:24:41.021Z,12.40
2018-08-10T03:27:09.370Z,12.40
2018-08-10T03:29:37.647Z,12.40
2018-08-10T03:32:06.175Z,12.40
2018-08-10T03:34:34.586Z,12.30
2018-08-10T03:37:02.955Z,12.30
2018-08-10T03:39:31.320Z,12.30
2018-08-10T03:41:59.828Z,12.30
2018-08-10T03:44:28.134Z,12.20
2018-08-10T03:46:56.490Z,12.30
2018-08-10T03:49:24.848Z,12.20
2018-08-10T03:51:53.218Z,12.10
2018-08-10T03:54:21.538Z,12.20
2018-08-10T03:56:49.853Z,12.20
2018-08-10T03:59:18.218Z,12.30
2018-08-10T04:01:46.561Z,12.30
2018-08-10T04:04:14.983Z,12.30
2018-08-10T04:06:43.376Z,12.30
2018-08-10T04:09:12.798Z,12.20
2018-08-10T04:11:41.816Z,12.20
2018-08-10T04:14:10.099Z,12.20
2018-08-10T04:16:38.368Z,12.20
2018-08-10T04:19:06.746Z,12.00
2018-08-10T04:21:35.089Z,12.10
2018-08-10T04:24:03.450Z,12.10
2018-08-10T04:26:31.781Z,12.00
2018-08-10T04:29:00.116Z,12.10
2018-08-10T04:31:28.480Z,12.00
2018-08-10T04:33:56.829Z,12.00
2018-08-10T04:36:25.163Z,12.10
2018-08-10T04:38:53.549Z,12.10
2018-08-10T04:41:21.878Z,12.10
2018-08-10T04:43:50.304Z,12.20
2018-08-10T04:46:18.641Z,12.10
2018-08-10T04:48:47.008Z,12.20
2018-08-10T04:51:15.714Z,12.20
2018-08-10T04:53:44.021Z,12.20
2018-08-10T04:56:12.452Z,12.30
2018-08-10T04:58:40.767Z,12.40
2018-08-10T05:01:09.156Z,12.40
2018-08-10T05:03:37.525Z,12.60
2018-08-10T05:06:06.156Z,12.60
2018-08-10T05:08:34.517Z,12.60
2018-08-10T05:11:02.903Z,12.60
2018-08-10T05:13:31.318Z,12.80
2018-08-10T05:15:59.768Z,12.80
2018-08-10T05:18:28.097Z,12.90
2018-08-10T05:20:56.452Z,13.00
2018-08-10T05:23:24.792Z,13.10
2018-08-10T05:25:53.211Z,13.20
2018-08-10T05:28:21.485Z,13.30
2018-08-10T05:30:49.833Z,13.40
2018-08-10T05:33:18.168Z,13.50
2018-08-10T05:35:46.724Z,13.50
2018-08-10T05:38:15.085Z,13.60
2018-08-10T05:40:43.420Z,13.80
2018-08-10T05:43:11.809Z,13.80
2018-08-10T05:45:40.132Z,14.00
2018-08-10T05:48:08.564Z,14.20
2018-08-10T05:50:36.955Z,14.40
2018-08-10T05:53:05.425Z,14.50
2018-08-10T05:55:33.717Z,14.60
2018-08-10T05:58:02.070Z,14.60
2018-08-10T06:00:30.500Z,14.90
2018-08-10T06:02:58.835Z,15.00
2018-08-10T06:05:27.194Z,15.00
2018-08-10T06:07:55.498Z,15.20
2018-08-10T06:10:23.820Z,15.50
2018-08-10T06:12:52.143Z,15.60
2018-08-10T06:15:20.543Z,15.50
2018-08-10T06:17:48.877Z,15.40
2018-08-10T06:20:17.218Z,15.40
2018-08-10T06:22:45.593Z,15.50
2018-08-10T06:25:13.949Z,15.60
2018-08-10T06:27:42.393Z,15.80
2018-08-10T06:30:11.986Z,16.00
2018-08-10T06:32:40.414Z,16.20
2018-08-10T06:35:08.794Z,16.30
2018-08-10T06:37:37.141Z,16.40
2018-08-10T06:40:05.768Z,16.40
2018-08-10T06:42:34.253Z,16.40
2018-08-10T06:45:03.020Z,16.50
2018-08-10T06:47:31.496Z,16.50
2018-08-10T06:49:59.881Z,16.40
2018-08-10T06:52:28.204Z,16.30
2018-08-10T06:54:56.527Z,16.40
2018-08-10T06:57:24.868Z,16.60
2018-08-10T06:59:53.199Z,17.00
2018-08-10T07:02:21.550Z,17.20
2018-08-10T07:04:49.898Z,17.70
2018-08-10T07:07:18.284Z,18.50
2018-08-10T07:09:46.648Z,19.00
2018-08-10T07:12:15.346Z,19.40
2018-08-10T07:14:43.784Z,19.80
2018-08-10T07:17:12.134Z,19.30
2018-08-10T07:19:40.465Z,19.20
2018-08-10T07:22:08.832Z,18.60
2018-08-10T07:24:37.514Z,18.50
2018-08-10T07:27:05.923Z,18.00
2018-08-10T07:29:34.263Z,18.40
2018-08-10T07:32:02.554Z,18.70
2018-08-10T07:34:30.888Z,18.40
2018-08-10T07:36:59.311Z,18.60
2018-08-10T07:39:27.657Z,18.70
2018-08-10T07:41:56.035Z,18.20
2018-08-10T07:44:24.356Z,17.80
2018-08-10T07:46:52.692Z,17.70
2018-08-10T07:49:21.059Z,17.80
2018-08-10T07:51:49.449Z,18.30
2018-08-10T07:54:17.806Z,18.80
2018-08-10T07:56:46.160Z,19.20
2018-08-10T07:59:14.524Z,19.00
2018-08-10T08:01:42.904Z,18.70
2018-08-10T08:04:11.383Z,19.10
2018-08-10T08:06:39.843Z,19.40
2018-08-10T08:09:10.337Z,18.50
2018-08-10T08:11:38.721Z,18.60
2018-08-10T08:14:07.308Z,18.60
2018-08-10T08:16:36.108Z,18.90
2018-08-10T08:19:04.558Z,19.50
2018-08-10T08:21:32.955Z,19.30
2018-08-10T08:24:01.443Z,19.40
2018-08-10T08:26:29.790Z,19.90
2018-08-10T08:28:58.177Z,20.10
2018-08-10T08:31:26.531Z,20.00
2018-08-10T08:34:02.239Z,19.20
2018-08-10T08:36:30.569Z,19.40
2018-08-10T08:39:25.959Z,19.70
2018-08-10T08:41:54.269Z,19.40
2018-08-10T08:44:35.237Z,19.00
2018-08-10T08:47:05.175Z,18.90
2018-08-10T08:49:34.249Z,19.30
2018-08-10T08:52:02.651Z,19.70
2018-08-10T08:55:35.064Z,23.20
2018-08-10T08:58:03.720Z,20.10
2018-08-10T09:00:32.074Z,20.10
2018-08-10T09:03:00.446Z,19.60
2018-08-10T09:05:29.346Z,19.30
2018-08-10T09:07:57.764Z,19.50
2018-08-10T09:10:26.275Z,19.60
2018-08-10T09:12:54.626Z,19.60
2018-08-10T09:15:23.886Z,19.40
2018-08-10T09:17:52.247Z,19.50
2018-08-10T09:20:21.045Z,19.60
2018-08-10T09:22:49.450Z,19.50
2018-08-10T09:25:18.825Z,19.70
2018-08-10T09:27:47.330Z,20.00
2018-08-10T09:30:17.022Z,19.90
2018-08-10T09:32:45.488Z,19.90
2018-08-10T09:35:14.490Z,20.30
2018-08-10T09:37:43.354Z,20.10
2018-08-10T09:40:14.944Z,20.30
2018-08-10T09:42:43.721Z,19.90
2018-08-10T09:45:13.693Z,20.00
2018-08-10T09:47:42.606Z,19.70
2018-08-10T09:50:12.185Z,19.70
2018-08-10T09:52:40.738Z,19.80
2018-08-10T09:55:32.003Z,20.30
2018-08-10T09:58:08.663Z,20.30
2018-08-10T10:00:42.607Z,19.80
2018-08-10T10:03:16.581Z,20.00
2018-08-10T10:05:45.348Z,20.70
2018-08-10T10:08:14.033Z,20.60
2018-08-10T10:10:42.370Z,20.20
2018-08-10T10:13:10.859Z,19.90
2018-08-10T10:15:39.337Z,19.70
2018-08-10T10:18:09.343Z,19.90
2018-08-10T10:20:37.822Z,20.00
2018-08-10T10:23:06.513Z,19.90
2018-08-10T10:25:34.924Z,19.90
2018-08-10T10:28:03.343Z,20.50
2018-08-10T10:30:31.748Z,21.00
2018-08-10T10:33:00.069Z,20.90
2018-08-10T10:35:28.523Z,20.70
2018-08-10T10:37:57.082Z,21.10
2018-08-10T10:40:25.441Z,21.30
2018-08-10T10:42:53.826Z,21.20
2018-08-10T10:45:22.177Z,20.40
2018-08-10T10:47:50.553Z,20.10
2018-08-10T10:50:19.449Z,20.00
2018-08-10T10:52:47.844Z,20.10
2018-08-10T10:55:16.260Z,20.00
2018-08-10T10:57:44.809Z,20.00
2018-08-10T11:00:15.835Z,20.10
2018-08-10T11:02:44.568Z,20.10
2018-08-10T11:05:12.870Z,20.00
2018-08-10T11:07:41.242Z,19.60
2018-08-10T11:10:11.157Z,19.50
2018-08-10T11:12:39.651Z,19.90
2018-08-10T11:15:09.132Z,19.90
2018-08-10T11:17:37.596Z,20.00
2018-08-10T11:20:07.018Z,20.50
2018-08-10T11:22:35.420Z,20.80
2018-08-10T11:25:04.316Z,21.00
2018-08-10T11:27:32.676Z,21.10
2018-08-10T11:30:01.082Z,21.10
2018-08-10T11:32:29.407Z,20.80
2018-08-10T11:34:57.781Z,20.30
2018-08-10T11:37:26.141Z,20.10
2018-08-10T11:39:54.484Z,19.90
2018-08-10T11:42:22.830Z,19.70
2018-08-10T11:44:51.210Z,19.70
2018-08-10T11:47:19.593Z,19.70
2018-08-10T11:49:47.976Z,19.60
2018-08-10T11:52:16.346Z,19.60
2018-08-10T11:54:44.740Z,19.40
2018-08-10T11:57:13.117Z,19.40
2018-08-10T11:59:41.617Z,19.60
2018-08-10T12:02:09.984Z,20.10
2018-08-10T12:04:38.396Z,20.50
2018-08-10T12:07:06.833Z,20.70
2018-08-10T12:09:35.247Z,20.40
2018-08-10T12:12:03.666Z,20.70
2018-08-10T12:14:32.017Z,21.40
2018-08-10T12:17:00.362Z,21.90
2018-08-10T12:19:30.690Z,21.80
2018-08-10T12:21:59.053Z,21.60
2018-08-10T12:24:27.444Z,21.60
2018-08-10T12:26:55.830Z,21.50
2018-08-10T12:29:24.219Z,21.30
2018-08-10T12:31:52.577Z,21.30
2018-08-10T12:34:20.951Z,21.60
2018-08-10T12:36:49.324Z,21.70
2018-08-10T12:39:17.725Z,21.50
2018-08-10T12:41:46.112Z,21.40
2018-08-10T12:44:14.476Z,20.90
2018-08-10T12:46:42.852Z,20.30
2018-08-10T12:49:11.204Z,20.10
2018-08-10T12:51:39.548Z,20.40
2018-08-10T12:54:07.867Z,20.90
2018-08-10T12:56:36.231Z,22.10
2018-08-10T12:59:04.781Z,23.20
2018-08-10T13:01:33.135Z,24.20
2018-08-10T13:04:01.512Z,24.10
2018-08-10T13:06:29.879Z,24.50
2018-08-10T13:08:58.441Z,24.80
2018-08-10T13:11:26.812Z,25.20
2018-08-10T13:13:55.186Z,25.10
2018-08-10T13:16:23.654Z,25.80
2018-08-10T13:18:52.063Z,25.30
2018-08-10T13:21:20.493Z,25.80
2018-08-10T13:23:48.904Z,25.30
2018-08-10T13:26:17.234Z,25.30
2018-08-10T13:28:45.649Z,25.20
2018-08-10T13:31:14.014Z,25.00
2018-08-10T13:33:42.400Z,23.30
2018-08-10T13:36:10.719Z,21.80
2018-08-10T13:38:39.038Z,21.20
2018-08-10T13:41:07.673Z,21.20
2018-08-10T13:43:36.097Z,21.10
2018-08-10T13:46:04.414Z,21.30
2018-08-10T13:48:32.736Z,21.70
2018-08-10T13:51:01.161Z,21.80
2018-08-10T13:53:29.563Z,21.50
2018-08-10T13:55:57.920Z,21.40
2018-08-10T13:58:26.342Z,21.30
2018-08-10T14:00:54.674Z,22.20
2018-08-10T14:03:23.024Z,23.90
2018-08-10T14:05:51.484Z,25.00
2018-08-10T14:08:19.783Z,25.10
2018-08-10T14:10:48.177Z,25.10
2018-08-10T14:13:16.527Z,24.40
2018-08-10T14:15:44.897Z,22.80
2018-08-10T14:18:13.301Z,22.20
2018-08-10T14:20:41.638Z,22.90
2018-08-10T14:23:10.074Z,22.90
2018-08-10T14:25:38.433Z,22.50
2018-08-10T14:28:06.813Z,22.10
2018-08-10T14:30:35.273Z,22.00
2018-08-10T14:33:03.653Z,23.00
2018-08-10T14:35:32.055Z,24.60
2018-08-10T14:38:00.406Z,25.30
2018-08-10T14:40:28.771Z,26.20
2018-08-10T14:42:57.124Z,26.80
2018-08-10T14:45:25.462Z,28.10
2018-08-10T14:47:53.848Z,27.60
2018-08-10T14:50:22.213Z,26.20
2018-08-10T14:52:50.553Z,26.40
2018-08-10T14:55:18.911Z,26.70
2018-08-10T14:57:47.288Z,25.50
2018-08-10T15:00:18.468Z,25.70
2018-08-10T15:02:47.158Z,26.30
2018-08-10T15:05:15.515Z,26.90
2018-08-10T15:07:44.231Z,26.50
2018-08-10T15:10:14.219Z,26.30
2018-08-10T15:12:42.939Z,26.50
2018-08-10T15:15:14.142Z,27.10
2018-08-10T15:17:42.573Z,26.80
2018-08-10T15:20:13.487Z,25.10
2018-08-10T15:22:42.002Z,23.80
2018-08-10T15:25:10.961Z,22.70
2018-08-10T15:27:40.032Z,24.10
2018-08-10T15:30:11.189Z,25.40
2018-08-10T15:32:39.582Z,26.20
2018-08-10T15:35:07.933Z,25.10
2018-08-10T15:37:36.760Z,23.90
2018-08-10T15:40:06.552Z,23.30
2018-08-10T15:42:34.909Z,23.00
2018-08-10T15:45:03.485Z,24.40
2018-08-10T15:47:31.832Z,25.90
2018-08-10T15:50:00.329Z,25.20
2018-08-10T15:52:28.617Z,24.40
2018-08-10T15:54:57.010Z,25.40
2018-08-10T15:57:25.348Z,25.60
2018-08-10T15:59:53.706Z,24.60
2018-08-10T16:02:22.051Z,25.00
2018-08-10T16:04:50.406Z,25.80
2018-08-10T16:07:18.768Z,26.20
2018-08-10T16:09:47.125Z,26.10
2018-08-10T16:12:15.525Z,25.50
2018-08-10T16:14:43.895Z,24.70
2018-08-10T16:17:12.282Z,24.10
2018-08-10T16:19:41.401Z,24.30
2018-08-10T16:22:09.730Z,24.60
2018-08-10T16:24:38.653Z,25.50
2018-08-10T16:27:07.017Z,24.30
2018-08-10T16:29:35.368Z,23.20
2018-08-10T16:32:03.703Z,22.40
2018-08-10T16:34:31.999Z,22.00
2018-08-10T16:37:00.654Z,21.60
2018-08-10T16:39:29.012Z,22.30
2018-08-10T16:41:57.357Z,23.80
2018-08-10T16:44:25.713Z,24.90
2018-08-10T16:46:54.081Z,25.30
2018-08-10T16:49:22.403Z,25.10
2018-08-10T16:51:50.786Z,23.80
2018-08-10T16:54:19.164Z,22.50
2018-08-10T16:56:47.496Z,21.80
2018-08-10T16:59:15.836Z,22.30
2018-08-10T17:01:44.226Z,22.30
2018-08-10T17:04:12.631Z,22.10
2018-08-10T17:06:41.290Z,22.10
2018-08-10T17:09:11.087Z,22.20
2018-08-10T17:11:39.566Z,21.90
2018-08-10T17:14:08.532Z,21.50
2018-08-10T17:16:37.036Z,21.20
2018-08-10T17:19:05.391Z,20.90
2018-08-10T17:21:34.474Z,20.70
2018-08-10T17:24:03.306Z,20.50
2018-08-10T17:26:31.847Z,20.40
2018-08-10T17:29:00.225Z,20.30
2018-08-10T17:31:28.579Z,20.30
2018-08-10T17:33:56.941Z,20.30
2018-08-10T17:36:25.428Z,20.20
2018-08-10T17:38:53.791Z,20.20
2018-08-10T17:41:22.220Z,20.20
2018-08-10T17:43:50.625Z,20.30
2018-08-10T17:46:18.963Z,20.30
2018-08-10T17:48:47.416Z,20.30
2018-08-10T17:51:15.848Z,20.30
2018-08-10T17:53:44.301Z,20.20
2018-08-10T17:56:12.690Z,20.30
2018-08-10T17:58:41.117Z,20.20
2018-08-10T18:01:09.501Z,20.20
2018-08-10T18:03:37.900Z,20.10
2018-08-10T18:06:06.496Z,20.00
2018-08-10T18:08:34.890Z,20.00
2018-08-10T18:11:03.305Z,19.90
2018-08-10T18:13:31.676Z,19.90
2018-08-10T18:16:00.034Z,19.80
2018-08-10T18:18:28.717Z,19.70
2018-08-10T18:20:57.113Z,19.70
2018-08-10T18:23:25.499Z,19.50
2018-08-10T18:25:53.868Z,19.50
2018-08-10T18:28:22.275Z,19.50
2018-08-10T18:30:50.661Z,19.40
2018-08-10T18:33:19.015Z,19.40
2018-08-10T18:35:47.405Z,19.40
2018-08-10T18:38:15.839Z,19.30
2018-08-10T18:40:44.355Z,19.20
2018-08-10T18:43:12.708Z,19.10
2018-08-10T18:45:41.088Z,19.00
2018-08-10T18:48:09.477Z,19.00
2018-08-10T18:50:37.945Z,19.00
2018-08-10T18:53:06.460Z,18.80
2018-08-10T18:55:34.863Z,18.90
2018-08-10T18:58:03.595Z,18.90
2018-08-10T19:00:32.053Z,18.70
2018-08-10T19:03:00.435Z,18.80
2018-08-10T19:05:28.839Z,18.70
2018-08-10T19:07:57.290Z,18.60
2018-08-10T19:10:27.160Z,18.60
2018-08-10T19:12:55.540Z,18.50
2018-08-10T19:15:24.033Z,18.50
2018-08-10T19:17:52.402Z,18.40
2018-08-10T19:20:20.798Z,18.30
2018-08-10T19:22:49.293Z,18.30
2018-08-10T19:25:18.575Z,18.20
2018-08-10T19:27:47.361Z,18.20
2018-08-10T19:30:21.652Z,18.20
2018-08-10T19:32:50.067Z,18.00
2018-08-10T19:35:18.914Z,17.80
2018-08-10T19:37:47.866Z,17.70
2018-08-10T19:40:17.958Z,17.70
2018-08-10T19:42:46.387Z,17.60
2018-08-10T19:45:16.169Z,17.60
2018-08-10T19:47:44.619Z,17.50
2018-08-10T19:50:14.643Z,17.40
2018-08-10T19:52:43.233Z,17.30
2018-08-10T19:55:14.167Z,17.30
2018-08-10T19:57:42.570Z,17.30
2018-08-10T20:00:12.601Z,17.30
2018-08-10T20:02:41.053Z,17.20
2018-08-10T20:05:11.245Z,17.20
2018-08-10T20:07:40.561Z,17.10
2018-08-10T20:10:12.634Z,17.00
2018-08-10T20:15:25.966Z,16.80
2018-08-10T20:17:54.792Z,16.80
2018-08-10T20:20:23.377Z,16.70
2018-08-10T20:22:57.482Z,16.80
2018-08-10T20:25:29.184Z,16.60
2018-08-10T20:27:58.512Z,16.50
2018-08-10T20:30:28.785Z,16.50
2018-08-10T20:32:57.203Z,16.50
2018-08-10T20:35:25.688Z,16.50
2018-08-10T20:37:55.352Z,16.50
2018-08-10T20:40:23.984Z,16.50
2018-08-10T20:42:53.413Z,16.60
2018-08-10T20:45:22.405Z,16.50
2018-08-10T20:47:50.905Z,16.40
2018-08-10T20:50:24.326Z,16.40
2018-08-10T20:52:53.767Z,16.30
2018-08-10T20:55:22.612Z,16.20
2018-08-10T20:57:51.481Z,16.10
2018-08-10T21:00:19.933Z,16.00
2018-08-10T21:02:48.422Z,15.90
2018-08-10T21:05:16.923Z,15.80
2018-08-10T21:07:45.504Z,15.60
2018-08-10T21:10:15.355Z,15.60
2018-08-10T21:12:44.541Z,15.50
2018-08-10T21:15:13.996Z,15.50
2018-08-10T21:17:43.202Z,15.40
2018-08-10T21:20:15.988Z,15.40
2018-08-10T21:22:44.953Z,15.30
2018-08-10T21:25:13.832Z,15.10
2018-08-10T21:27:42.746Z,15.00
2018-08-10T21:30:15.712Z,14.90
2018-08-10T21:32:44.116Z,14.80
2018-08-10T21:35:12.533Z,14.60
2018-08-10T21:37:41.030Z,14.50
2018-08-10T21:40:10.192Z,14.50
2018-08-10T21:42:38.936Z,14.40
2018-08-10T21:45:07.320Z,14.30
2018-08-10T21:47:36.109Z,14.20
2018-08-10T21:50:06.124Z,14.20
2018-08-10T21:52:34.549Z,14.10
2018-08-10T21:55:02.922Z,14.00
2018-08-10T21:57:31.388Z,13.90
2018-08-10T21:59:59.803Z,13.90
2018-08-10T22:02:28.487Z,13.80
2018-08-10T22:04:56.925Z,13.70
2018-08-10T22:07:25.304Z,13.60
2018-08-10T22:09:53.720Z,13.50
2018-08-10T22:12:22.171Z,13.50
2018-08-10T22:14:55.773Z,13.30
2018-08-10T22:17:29.538Z,13.40
2018-08-10T22:19:59.645Z,13.20
2018-08-10T22:22:28.707Z,13.10
2018-08-10T22:24:57.064Z,13.00
2018-08-10T22:27:25.486Z,12.90
2018-08-10T22:29:53.913Z,12.90
2018-08-10T22:32:22.358Z,12.80
2018-08-10T22:34:50.734Z,12.80
2018-08-10T22:37:19.354Z,12.70
2018-08-10T22:39:47.800Z,12.50
2018-08-10T22:42:16.423Z,12.60
2018-08-10T22:44:44.989Z,12.60
2018-08-10T22:47:13.366Z,12.60
2018-08-10T22:49:41.772Z,12.60
2018-08-10T22:52:10.223Z,12.50
2018-08-10T22:54:38.623Z,12.50
2018-08-10T22:57:07.605Z,12.50
2018-08-10T22:59:35.984Z,12.50
2018-08-10T23:02:04.409Z,12.40
2018-08-10T23:04:32.831Z,12.30
2018-08-10T23:07:01.227Z,12.20
2018-08-10T23:09:29.645Z,12.30
2018-08-10T23:11:58.031Z,12.20
2018-08-10T23:14:26.394Z,12.30
2018-08-10T23:16:54.814Z,12.20
2018-08-10T23:19:23.174Z,12.30
2018-08-10T23:21:51.576Z,12.20
2018-08-10T23:24:19.942Z,12.10
2018-08-10T23:26:48.265Z,12.00
2018-08-10T23:29:16.655Z,12.00
2018-08-10T23:31:45.054Z,12.00
2018-08-10T23:34:13.532Z,12.00
2018-08-10T23:36:41.913Z,11.90
2018-08-10T23:39:11.629Z,11.80
2018-08-10T23:41:40.476Z,11.80
2018-08-10T23:44:08.925Z,11.80
2018-08-10T23:46:37.368Z,11.70
2018-08-10T23:49:05.834Z,11.80
2018-08-10T23:51:34.176Z,11.70
2018-08-10T23:54:02.590Z,11.80
2018-08-10T23:56:30.909Z,11.70
2018-08-10T23:58:59.394Z,11.70
